DAL38 KSAN-KSEA
Flight info
| Callsign | DAL38 |
|---|---|
| Flight time | N/A |
| Altitude | 40000 |
| Route | PADRZ2 EHF SHIMR LKV HAWKZ8 |
| Aircraft | MD11/H-SDE1E2E3FGHIJ2J3J4J5M1RWXY/LB1D1 |
Departure
| Time | 2026-04-26 18:52 |
|---|---|
| Airport | San Diego International Airport (KSAN) |
Arrival
| Time | N/A |
|---|---|
| Airport | Seattle–Tacoma International Airport (KSEA) |
| Time | Latitude | Longitude | Altitude | Speed | Heading |
|---|---|---|---|---|---|
| 2026-04-26 18:07 | 32.73322 | -117.19560 | 27 ft | 0 kts | 230° |
| 2026-04-26 18:39 | 32.73323 | -117.19558 | 28 ft | 2 kts | 230° |
| 2026-04-26 18:39 | 32.73333 | -117.19544 | 29 ft | 2 kts | 230° |
| 2026-04-26 18:39 | 32.73339 | -117.19535 | 30 ft | 2 kts | 240° |
| 2026-04-26 18:39 | 32.73347 | -117.19519 | 29 ft | 2 kts | 240° |
| 2026-04-26 18:40 | 32.73355 | -117.19502 | 30 ft | 2 kts | 240° |
| 2026-04-26 18:40 | 32.73363 | -117.19485 | 28 ft | 2 kts | 240° |
| 2026-04-26 18:40 | 32.73364 | -117.19484 | 28 ft | 0 kts | 240° |
| 2026-04-26 18:40 | 32.73363 | -117.19485 | 28 ft | 0 kts | 236° |
| 2026-04-26 18:41 | 32.73362 | -117.19485 | 28 ft | 0 kts | 230° |
| 2026-04-26 18:41 | 32.73361 | -117.19485 | 28 ft | 0 kts | 226° |
| 2026-04-26 18:41 | 32.73352 | -117.19485 | 29 ft | 1 kts | 179° |
| 2026-04-26 18:41 | 32.73347 | -117.19476 | 29 ft | 1 kts | 130° |
| 2026-04-26 18:42 | 32.73348 | -117.19467 | 29 ft | 2 kts | 93° |
| 2026-04-26 18:43 | 32.73348 | -117.19466 | 29 ft | 0 kts | 93° |
| 2026-04-26 18:43 | 32.73348 | -117.19459 | 29 ft | 1 kts | 90° |
| 2026-04-26 18:43 | 32.73350 | -117.19424 | 29 ft | 10 kts | 88° |
| 2026-04-26 18:43 | 32.73339 | -117.19327 | 28 ft | 13 kts | 103° |
| 2026-04-26 18:44 | 32.73315 | -117.19215 | 28 ft | 14 kts | 105° |
| 2026-04-26 18:44 | 32.73290 | -117.19104 | 29 ft | 13 kts | 105° |
| 2026-04-26 18:44 | 32.73266 | -117.19001 | 30 ft | 13 kts | 105° |
| 2026-04-26 18:44 | 32.73241 | -117.18899 | 29 ft | 13 kts | 106° |
| 2026-04-26 18:45 | 32.73217 | -117.18800 | 31 ft | 12 kts | 106° |
| 2026-04-26 18:45 | 32.73195 | -117.18710 | 34 ft | 11 kts | 106° |
| 2026-04-26 18:45 | 32.73171 | -117.18615 | 30 ft | 13 kts | 106° |
| 2026-04-26 18:45 | 32.73144 | -117.18506 | 30 ft | 15 kts | 106° |
| 2026-04-26 18:46 | 32.73115 | -117.18388 | 30 ft | 15 kts | 106° |
| 2026-04-26 18:46 | 32.73086 | -117.18272 | 30 ft | 15 kts | 106° |
| 2026-04-26 18:46 | 32.73056 | -117.18151 | 30 ft | 13 kts | 106° |
| 2026-04-26 18:46 | 32.73030 | -117.18042 | 31 ft | 14 kts | 106° |
| 2026-04-26 18:47 | 32.73002 | -117.17930 | 27 ft | 14 kts | 106° |
| 2026-04-26 18:47 | 32.72973 | -117.17813 | 28 ft | 15 kts | 106° |
| 2026-04-26 18:47 | 32.72955 | -117.17737 | 29 ft | 0 kts | 103° |
| 2026-04-26 18:49 | 32.72955 | -117.17736 | 29 ft | 0 kts | 103° |
| 2026-04-26 18:49 | 32.72953 | -117.17722 | 27 ft | 4 kts | 96° |
| 2026-04-26 18:50 | 32.72961 | -117.17664 | 30 ft | 9 kts | 70° |
| 2026-04-26 18:50 | 32.73000 | -117.17625 | 27 ft | 5 kts | 15° |
| 2026-04-26 18:50 | 32.73019 | -117.17634 | 31 ft | 1 kts | 319° |
| 2026-04-26 18:50 | 32.73031 | -117.17654 | 32 ft | 6 kts | 303° |
| 2026-04-26 18:51 | 32.73039 | -117.17676 | 31 ft | 1 kts | 287° |
| 2026-04-26 18:51 | 32.73041 | -117.17685 | 31 ft | 2 kts | 287° |
| 2026-04-26 18:51 | 32.73045 | -117.17701 | 29 ft | 2 kts | 287° |
| 2026-04-26 18:51 | 32.73053 | -117.17730 | 28 ft | 10 kts | 287° |
| 2026-04-26 18:52 | 32.73179 | -117.18243 | 30 ft | 121 kts | 286° |
| 2026-04-26 18:52 | 32.73483 | -117.19498 | 389 ft | 176 kts | 287° |
| 2026-04-26 18:52 | 32.73866 | -117.20930 | 1499 ft | 188 kts | 288° |
| 2026-04-26 18:52 | 32.74447 | -117.22325 | 2657 ft | 189 kts | 303° |
| 2026-04-26 18:53 | 32.75130 | -117.23462 | 4245 ft | 170 kts | 303° |
| 2026-04-26 18:53 | 32.75879 | -117.24786 | 4693 ft | 219 kts | 302° |
| 2026-04-26 18:53 | 32.76800 | -117.26410 | 4964 ft | 249 kts | 303° |
| 2026-04-26 18:53 | 32.77785 | -117.28115 | 6048 ft | 251 kts | 303° |
| 2026-04-26 18:54 | 32.78787 | -117.29831 | 7170 ft | 254 kts | 303° |
| 2026-04-26 18:54 | 32.79816 | -117.31551 | 8321 ft | 256 kts | 304° |
| 2026-04-26 18:54 | 32.80885 | -117.33253 | 9503 ft | 257 kts | 304° |
| 2026-04-26 18:54 | 32.81968 | -117.34951 | 10418 ft | 270 kts | 304° |
| 2026-04-26 18:55 | 32.83182 | -117.36854 | 10557 ft | 308 kts | 305° |
| 2026-04-26 18:55 | 32.84531 | -117.38961 | 11132 ft | 325 kts | 305° |
| 2026-04-26 18:55 | 32.85916 | -117.41109 | 12178 ft | 330 kts | 305° |
| 2026-04-26 18:55 | 32.87321 | -117.43288 | 13209 ft | 335 kts | 305° |
| 2026-04-26 18:56 | 32.88750 | -117.45504 | 14190 ft | 340 kts | 305° |
| 2026-04-26 18:56 | 32.90198 | -117.47751 | 15101 ft | 344 kts | 304° |
| 2026-04-26 18:56 | 32.91667 | -117.50033 | 16004 ft | 349 kts | 304° |
| 2026-04-26 18:56 | 32.93150 | -117.52343 | 16925 ft | 353 kts | 303° |
| 2026-04-26 18:57 | 32.94648 | -117.54688 | 17841 ft | 358 kts | 303° |
| 2026-04-26 18:57 | 32.95137 | -117.55456 | 18152 ft | 360 kts | 302° |
| 2026-04-26 18:57 | 32.97677 | -117.59440 | 19481 ft | 367 kts | 302° |
| 2026-04-26 18:57 | 32.99228 | -117.61873 | 20266 ft | 371 kts | 302° |
| 2026-04-26 18:58 | 33.00794 | -117.64332 | 21064 ft | 375 kts | 302° |
| 2026-04-26 18:58 | 33.02381 | -117.66824 | 21818 ft | 379 kts | 302° |
| 2026-04-26 18:58 | 33.03987 | -117.69345 | 22573 ft | 383 kts | 302° |
| 2026-04-26 18:58 | 33.05641 | -117.71871 | 23289 ft | 390 kts | 305° |
| 2026-04-26 18:59 | 33.07550 | -117.74210 | 23971 ft | 398 kts | 310° |
| 2026-04-26 18:59 | 33.09635 | -117.76427 | 24611 ft | 403 kts | 312° |
| 2026-04-26 18:59 | 33.11788 | -117.78601 | 25279 ft | 406 kts | 312° |
| 2026-04-26 18:59 | 33.13969 | -117.80778 | 25945 ft | 409 kts | 312° |
| 2026-04-26 19:00 | 33.16151 | -117.82964 | 26600 ft | 411 kts | 311° |
| 2026-04-26 19:00 | 33.18316 | -117.85149 | 27241 ft | 414 kts | 311° |
| 2026-04-26 19:00 | 33.20534 | -117.87363 | 27874 ft | 418 kts | 311° |
| 2026-04-26 19:00 | 33.22798 | -117.89591 | 28454 ft | 423 kts | 311° |
| 2026-04-26 19:01 | 33.25080 | -117.91824 | 29050 ft | 426 kts | 311° |
| 2026-04-26 19:01 | 33.27384 | -117.94076 | 29639 ft | 429 kts | 311° |
| 2026-04-26 19:01 | 33.29704 | -117.96346 | 30187 ft | 433 kts | 311° |
| 2026-04-26 19:01 | 33.32035 | -117.98630 | 30683 ft | 435 kts | 311° |
| 2026-04-26 19:02 | 33.34374 | -118.00919 | 31309 ft | 433 kts | 310° |
| 2026-04-26 19:02 | 33.36707 | -118.03205 | 31964 ft | 432 kts | 310° |
| 2026-04-26 19:02 | 33.39033 | -118.05487 | 32651 ft | 431 kts | 310° |
| 2026-04-26 19:02 | 33.39784 | -118.06227 | 32771 ft | 432 kts | 311° |
| 2026-04-26 19:03 | 33.43651 | -118.10036 | 33705 ft | 432 kts | 310° |
| 2026-04-26 19:03 | 33.45965 | -118.12314 | 34262 ft | 430 kts | 310° |
| 2026-04-26 19:03 | 33.48277 | -118.14592 | 34745 ft | 429 kts | 310° |
| 2026-04-26 19:03 | 33.50579 | -118.16864 | 35224 ft | 429 kts | 310° |
| 2026-04-26 19:04 | 33.52878 | -118.19134 | 35692 ft | 428 kts | 310° |
| 2026-04-26 19:04 | 33.55174 | -118.21403 | 36131 ft | 428 kts | 310° |
| 2026-04-26 19:04 | 33.57606 | -118.23527 | 36565 ft | 438 kts | 318° |
| 2026-04-26 19:04 | 33.59365 | -118.24735 | 36775 ft | 445 kts | 321° |
| 2026-04-26 19:05 | 33.65030 | -118.27920 | 37529 ft | 451 kts | 325° |
| 2026-04-26 19:05 | 33.67903 | -118.29429 | 37913 ft | 451 kts | 325° |
| 2026-04-26 19:05 | 33.70770 | -118.30949 | 38284 ft | 450 kts | 324° |
| 2026-04-26 19:06 | 33.73630 | -118.32491 | 38675 ft | 449 kts | 324° |
| 2026-04-26 19:06 | 33.76494 | -118.34023 | 38954 ft | 451 kts | 325° |
| 2026-04-26 19:06 | 33.79384 | -118.35517 | 39230 ft | 452 kts | 326° |
| 2026-04-26 19:06 | 33.82282 | -118.36987 | 39471 ft | 453 kts | 327° |
| 2026-04-26 19:07 | 33.85190 | -118.38451 | 39713 ft | 453 kts | 327° |
| 2026-04-26 19:07 | 33.88105 | -118.39919 | 39940 ft | 454 kts | 327° |
| 2026-04-26 19:07 | 33.91031 | -118.41401 | 40011 ft | 459 kts | 327° |
| 2026-04-26 19:08 | 33.96963 | -118.44414 | 40035 ft | 462 kts | 327° |
| 2026-04-26 19:08 | 34.03189 | -118.46631 | 40031 ft | 480 kts | 341° |
| 2026-04-26 19:09 | 34.09875 | -118.47651 | 40029 ft | 487 kts | 345° |
| 2026-04-26 19:09 | 34.16608 | -118.48521 | 39999 ft | 485 kts | 344° |
| 2026-04-26 19:10 | 34.23312 | -118.49495 | 40010 ft | 485 kts | 344° |
| 2026-04-26 19:10 | 34.30012 | -118.50532 | 40028 ft | 485 kts | 344° |
| 2026-04-26 19:11 | 34.36701 | -118.51579 | 40016 ft | 485 kts | 344° |
| 2026-04-26 19:11 | 34.43400 | -118.52627 | 40024 ft | 485 kts | 344° |
| 2026-04-26 19:12 | 34.50087 | -118.53672 | 39975 ft | 484 kts | 345° |
| 2026-04-26 19:12 | 34.56772 | -118.54717 | 39979 ft | 484 kts | 345° |
| 2026-04-26 19:13 | 34.63464 | -118.55765 | 39980 ft | 484 kts | 344° |
| 2026-04-26 19:13 | 34.70111 | -118.56808 | 39984 ft | 484 kts | 345° |
| 2026-04-26 19:14 | 34.76806 | -118.57861 | 39982 ft | 485 kts | 345° |
| 2026-04-26 19:14 | 34.83499 | -118.58915 | 39984 ft | 484 kts | 345° |
| 2026-04-26 19:15 | 34.90184 | -118.59973 | 39991 ft | 484 kts | 345° |
| 2026-04-26 19:15 | 34.96861 | -118.61038 | 40005 ft | 484 kts | 343° |
| 2026-04-26 19:16 | 35.03173 | -118.63243 | 40005 ft | 461 kts | 324° |
| 2026-04-26 19:16 | 35.05857 | -118.65279 | 40007 ft | 449 kts | 314° |
| 2026-04-26 19:16 | 35.08230 | -118.67722 | 40024 ft | 445 kts | 310° |
| 2026-04-26 19:17 | 35.12772 | -118.72890 | 40008 ft | 447 kts | 310° |
| 2026-04-26 19:17 | 35.17404 | -118.77916 | 40002 ft | 449 kts | 312° |
| 2026-04-26 19:18 | 35.22171 | -118.82861 | 40008 ft | 449 kts | 313° |
| 2026-04-26 19:18 | 35.26962 | -118.87775 | 40029 ft | 451 kts | 313° |
| 2026-04-26 19:19 | 35.31773 | -118.92715 | 40016 ft | 451 kts | 313° |
| 2026-04-26 19:19 | 35.36583 | -118.97666 | 40025 ft | 451 kts | 313° |
| 2026-04-26 19:20 | 35.41378 | -119.02613 | 40026 ft | 450 kts | 313° |
| 2026-04-26 19:20 | 35.46206 | -119.07534 | 39999 ft | 454 kts | 317° |
| 2026-04-26 19:21 | 35.51946 | -119.11067 | 40010 ft | 472 kts | 335° |
| 2026-04-26 19:21 | 35.58300 | -119.13144 | 40017 ft | 477 kts | 339° |
| 2026-04-26 19:22 | 35.64736 | -119.15160 | 40028 ft | 477 kts | 338° |
| 2026-04-26 19:22 | 35.71112 | -119.17338 | 40027 ft | 476 kts | 337° |
| 2026-04-26 19:23 | 35.77474 | -119.19598 | 40027 ft | 475 kts | 337° |
| 2026-04-26 19:23 | 35.83837 | -119.21874 | 40028 ft | 476 kts | 337° |
| 2026-04-26 19:24 | 35.90193 | -119.24144 | 40025 ft | 476 kts | 337° |
| 2026-04-26 19:24 | 35.99739 | -119.27556 | 40029 ft | 475 kts | 337° |
| 2026-04-26 19:25 | 36.05016 | -119.29446 | 40031 ft | 475 kts | 338° |
| 2026-04-26 19:25 | 36.12390 | -119.32091 | 40028 ft | 475 kts | 338° |
| 2026-04-26 19:26 | 36.18738 | -119.34372 | 40033 ft | 475 kts | 338° |
| 2026-04-26 19:26 | 36.25086 | -119.36657 | 40039 ft | 475 kts | 338° |
| 2026-04-26 19:27 | 36.31432 | -119.38950 | 40035 ft | 474 kts | 338° |
| 2026-04-26 19:27 | 36.37772 | -119.41250 | 40035 ft | 474 kts | 338° |
| 2026-04-26 19:28 | 36.44066 | -119.43531 | 40042 ft | 473 kts | 338° |
| 2026-04-26 19:28 | 36.50393 | -119.45824 | 40029 ft | 473 kts | 338° |
| 2026-04-26 19:29 | 36.56711 | -119.48117 | 40018 ft | 473 kts | 338° |
| 2026-04-26 19:29 | 36.63033 | -119.50417 | 40022 ft | 473 kts | 338° |
| 2026-04-26 19:30 | 36.69344 | -119.52716 | 40019 ft | 472 kts | 338° |
| 2026-04-26 19:30 | 36.74585 | -119.54627 | 40024 ft | 472 kts | 338° |
| 2026-04-26 19:31 | 36.81914 | -119.57306 | 40024 ft | 472 kts | 338° |
| 2026-04-26 19:31 | 36.88211 | -119.59612 | 40021 ft | 471 kts | 338° |
| 2026-04-26 19:32 | 36.94507 | -119.61922 | 40018 ft | 472 kts | 338° |
| 2026-04-26 19:32 | 37.00808 | -119.64237 | 40015 ft | 471 kts | 338° |
| 2026-04-26 19:33 | 37.07099 | -119.66552 | 39992 ft | 470 kts | 338° |
| 2026-04-26 19:33 | 37.13376 | -119.68875 | 39994 ft | 471 kts | 338° |
| 2026-04-26 19:34 | 37.19662 | -119.71206 | 39995 ft | 471 kts | 338° |
| 2026-04-26 19:34 | 37.25903 | -119.73517 | 39987 ft | 470 kts | 338° |
| 2026-04-26 19:35 | 37.32190 | -119.75847 | 39990 ft | 470 kts | 338° |
| 2026-04-26 19:35 | 37.38473 | -119.78180 | 39997 ft | 470 kts | 338° |
| 2026-04-26 19:36 | 37.43681 | -119.80116 | 39987 ft | 469 kts | 338° |
| 2026-04-26 19:36 | 37.51007 | -119.82845 | 39975 ft | 469 kts | 338° |
| 2026-04-26 19:37 | 37.57232 | -119.85169 | 39993 ft | 469 kts | 338° |
| 2026-04-26 19:37 | 37.63499 | -119.87512 | 39977 ft | 469 kts | 338° |
| 2026-04-26 19:38 | 37.69757 | -119.89856 | 39969 ft | 469 kts | 338° |
| 2026-04-26 19:38 | 37.76014 | -119.92203 | 39983 ft | 469 kts | 339° |
| 2026-04-26 19:39 | 37.82278 | -119.94558 | 39972 ft | 470 kts | 339° |
| 2026-04-26 19:39 | 37.88554 | -119.96922 | 39970 ft | 470 kts | 339° |
| 2026-04-26 19:40 | 37.94789 | -119.99284 | 39968 ft | 470 kts | 338° |
| 2026-04-26 19:40 | 38.01065 | -120.01664 | 39956 ft | 471 kts | 339° |
| 2026-04-26 19:41 | 38.07341 | -120.04041 | 39947 ft | 470 kts | 339° |
| 2026-04-26 19:41 | 38.11543 | -120.05634 | 39952 ft | 471 kts | 339° |
| 2026-04-26 19:42 | 38.19925 | -120.08794 | 39940 ft | 473 kts | 341° |
| 2026-04-26 19:42 | 38.26476 | -120.10052 | 39946 ft | 479 kts | 351° |
| 2026-04-26 19:43 | 38.33113 | -120.10556 | 39946 ft | 481 kts | 353° |
| 2026-04-26 19:43 | 38.39792 | -120.11047 | 39931 ft | 480 kts | 352° |
| 2026-04-26 19:44 | 38.46453 | -120.11627 | 39930 ft | 479 kts | 352° |